createdAt,value
2017-06-15T00:01:01.619Z,15.87
2017-06-15T00:03:32.232Z,15.91
2017-06-15T00:06:01.920Z,16.05
2017-06-15T00:08:31.614Z,16.00
2017-06-15T00:11:01.315Z,15.98
2017-06-15T00:13:31.030Z,16.06
2017-06-15T00:16:01.596Z,15.96
2017-06-15T00:18:32.157Z,16.08
2017-06-15T00:21:01.881Z,15.93
2017-06-15T00:23:31.540Z,15.94
2017-06-15T00:26:01.218Z,15.87
2017-06-15T00:28:30.946Z,15.78
2017-06-15T00:31:00.615Z,16.00
2017-06-15T00:33:30.357Z,15.71
2017-06-15T00:36:00.038Z,15.65
2017-06-15T00:38:29.855Z,15.63
2017-06-15T00:40:59.565Z,15.65
2017-06-15T00:43:29.258Z,15.53
2017-06-15T00:45:58.963Z,15.55
2017-06-15T00:48:28.681Z,15.59
2017-06-15T00:50:58.378Z,15.61
2017-06-15T00:53:28.894Z,15.47
2017-06-15T00:55:58.642Z,15.50
2017-06-15T00:58:28.341Z,15.52
2017-06-15T01:00:58.032Z,15.53
2017-06-15T01:03:27.746Z,15.38
2017-06-15T01:05:57.430Z,15.46
2017-06-15T01:08:27.166Z,15.52
2017-06-15T01:10:56.864Z,15.39
2017-06-15T01:13:27.486Z,15.51
2017-06-15T01:15:57.198Z,15.49
2017-06-15T01:18:26.865Z,15.40
2017-06-15T01:20:56.582Z,15.43
2017-06-15T01:23:26.278Z,15.24
2017-06-15T01:25:56.003Z,15.19
2017-06-15T01:28:25.692Z,15.17
2017-06-15T01:30:56.235Z,15.22
2017-06-15T01:33:26.753Z,15.28
2017-06-15T01:36:04.467Z,15.07
2017-06-15T01:38:37.945Z,15.06
2017-06-15T01:41:07.335Z,15.01
2017-06-15T01:43:37.042Z,14.98
2017-06-15T01:46:06.744Z,14.96
2017-06-15T01:48:37.276Z,14.90
2017-06-15T01:51:06.959Z,15.08
2017-06-15T01:53:36.677Z,15.11
2017-06-15T01:56:06.358Z,15.04
2017-06-15T01:58:36.926Z,15.00
2017-06-15T02:01:06.911Z,15.01
2017-06-15T02:03:37.590Z,14.93
2017-06-15T02:06:08.160Z,14.90
2017-06-15T02:08:37.901Z,14.80
2017-06-15T02:11:08.398Z,14.65
2017-06-15T02:13:38.970Z,14.76
2017-06-15T02:16:08.747Z,14.90
2017-06-15T02:18:38.426Z,14.86
2017-06-15T02:21:08.114Z,14.74
2017-06-15T02:23:37.791Z,14.61
2017-06-15T02:26:07.505Z,14.54
2017-06-15T02:28:37.205Z,14.44
2017-06-15T02:31:06.946Z,14.43
2017-06-15T02:33:36.634Z,14.43
2017-06-15T02:36:06.450Z,14.65
2017-06-15T02:38:36.161Z,14.54
2017-06-15T02:41:05.890Z,14.50
2017-06-15T02:43:35.592Z,14.39
2017-06-15T02:46:05.259Z,14.52
2017-06-15T02:48:35.462Z,14.60
2017-06-15T02:51:05.166Z,14.45
2017-06-15T02:53:34.948Z,14.39
2017-06-15T02:56:07.877Z,14.29
2017-06-15T02:58:47.491Z,14.30
2017-06-15T03:01:32.979Z,14.31
2017-06-15T03:04:16.799Z,14.28
2017-06-15T03:06:59.205Z,14.32
2017-06-15T03:09:40.107Z,14.36
2017-06-15T03:12:18.248Z,14.29
2017-06-15T03:15:02.273Z,14.37
2017-06-15T03:17:43.883Z,14.28
2017-06-15T03:20:25.179Z,14.36
2017-06-15T03:23:02.729Z,14.35
2017-06-15T03:25:42.937Z,14.22
2017-06-15T03:28:23.838Z,14.43
2017-06-15T03:31:05.834Z,14.47
2017-06-15T03:33:39.410Z,14.55
2017-06-15T03:36:09.937Z,14.64
2017-06-15T03:38:41.035Z,14.57
2017-06-15T03:41:12.207Z,14.55
2017-06-15T03:43:43.226Z,14.60
2017-06-15T03:46:15.692Z,14.70
2017-06-15T03:48:48.544Z,14.85
2017-06-15T03:51:20.745Z,14.95
2017-06-15T03:53:52.894Z,14.97
2017-06-15T03:56:30.486Z,15.04
2017-06-15T03:59:04.369Z,15.01
2017-06-15T04:01:36.520Z,15.07
2017-06-15T04:04:07.615Z,15.19
2017-06-15T04:06:37.342Z,15.20
2017-06-15T04:09:07.019Z,15.31
2017-06-15T04:11:36.750Z,15.40
2017-06-15T04:14:06.465Z,15.64
2017-06-15T04:16:35.980Z,15.92
2017-06-15T04:19:05.727Z,15.92
2017-06-15T04:21:35.429Z,15.87
2017-06-15T04:24:06.648Z,16.19
2017-06-15T04:26:37.081Z,16.31
2017-06-15T04:29:06.833Z,16.18
2017-06-15T04:34:15.196Z,15.95
2017-06-15T04:36:44.898Z,15.85
2017-06-15T04:39:14.586Z,15.92
2017-06-15T04:41:45.163Z,16.14
2017-06-15T04:44:14.846Z,16.37
2017-06-15T04:46:44.556Z,16.83
2017-06-15T04:49:14.253Z,16.91
2017-06-15T04:51:45.832Z,17.37
2017-06-15T04:54:19.996Z,17.30
2017-06-15T04:56:53.021Z,17.47
2017-06-15T04:59:25.842Z,17.52
2017-06-15T05:01:55.992Z,17.47
2017-06-15T05:04:25.683Z,17.72
2017-06-15T05:06:55.350Z,17.24
2017-06-15T05:09:25.067Z,17.45
2017-06-15T05:11:54.742Z,17.63
2017-06-15T05:14:24.279Z,17.28
2017-06-15T05:16:54.794Z,17.10
2017-06-15T05:19:24.541Z,16.93
2017-06-15T05:21:54.221Z,16.95
2017-06-15T05:24:23.904Z,17.19
2017-06-15T05:26:53.634Z,17.43
2017-06-15T05:29:23.323Z,17.40
2017-06-15T05:31:53.046Z,17.71
2017-06-15T05:34:26.926Z,18.00
2017-06-15T05:37:01.041Z,17.73
2017-06-15T05:39:30.721Z,17.80
2017-06-15T05:42:00.407Z,17.48
2017-06-15T05:44:30.125Z,17.54
2017-06-15T05:46:59.831Z,17.64
2017-06-15T05:49:29.557Z,17.88
2017-06-15T05:51:59.245Z,17.77
2017-06-15T05:54:28.958Z,17.69
2017-06-15T06:00:04.779Z,18.00
2017-06-15T06:02:34.597Z,17.99
2017-06-15T06:05:04.281Z,18.27
2017-06-15T06:07:34.250Z,18.21
2017-06-15T06:10:03.977Z,18.53
2017-06-15T06:12:33.686Z,18.53
2017-06-15T06:15:03.422Z,18.36
2017-06-15T06:17:33.088Z,18.52
2017-06-15T06:20:02.946Z,18.53
2017-06-15T06:22:32.645Z,18.48
2017-06-15T06:25:02.315Z,18.75
2017-06-15T06:27:32.010Z,18.97
2017-06-15T06:30:01.726Z,19.15
2017-06-15T06:32:31.458Z,19.27
2017-06-15T06:35:01.134Z,19.35
2017-06-15T06:37:30.828Z,19.20
2017-06-15T06:40:01.381Z,19.21
2017-06-15T06:42:31.981Z,19.44
2017-06-15T06:45:01.698Z,19.64
2017-06-15T06:47:31.378Z,19.53
2017-06-15T06:50:01.078Z,19.54
2017-06-15T06:52:30.884Z,19.41
2017-06-15T06:55:00.716Z,19.58
2017-06-15T06:57:35.528Z,19.65
2017-06-15T07:00:07.649Z,19.76
2017-06-15T07:02:39.621Z,20.01
2017-06-15T07:05:10.966Z,20.29
2017-06-15T07:07:41.300Z,20.51
2017-06-15T07:10:13.959Z,20.59
2017-06-15T07:12:43.752Z,20.79
2017-06-15T07:15:13.492Z,20.44
2017-06-15T07:17:43.824Z,20.84
2017-06-15T07:20:13.686Z,21.27
2017-06-15T07:22:43.430Z,20.95
2017-06-15T07:25:13.217Z,21.29
2017-06-15T07:27:43.482Z,21.55
2017-06-15T07:30:13.219Z,21.23
2017-06-15T07:32:43.610Z,21.11
2017-06-15T07:35:13.803Z,21.30
2017-06-15T07:37:43.592Z,21.65
2017-06-15T07:40:14.221Z,21.65
2017-06-15T07:42:44.018Z,21.82
2017-06-15T07:45:14.808Z,21.83
2017-06-15T07:47:44.883Z,22.13
2017-06-15T07:50:14.621Z,22.17
2017-06-15T07:52:44.343Z,21.93
2017-06-15T07:55:14.125Z,21.86
2017-06-15T07:57:45.177Z,21.92
2017-06-15T08:00:14.951Z,22.30
2017-06-15T08:02:44.680Z,22.24
2017-06-15T08:05:14.449Z,22.43
2017-06-15T08:07:44.223Z,22.55
2017-06-15T08:10:13.975Z,22.58
2017-06-15T08:12:52.155Z,22.68
2017-06-15T08:15:21.889Z,22.62
2017-06-15T08:17:54.603Z,22.82
2017-06-15T08:20:27.251Z,22.81
2017-06-15T08:22:57.018Z,22.96
2017-06-15T08:25:28.053Z,23.38
2017-06-15T08:27:58.897Z,23.33
2017-06-15T08:30:28.654Z,23.03
2017-06-15T08:32:58.382Z,22.99
2017-06-15T08:35:28.144Z,23.23
2017-06-15T08:37:57.868Z,23.28
2017-06-15T08:40:27.681Z,23.44
2017-06-15T08:42:57.606Z,23.50
2017-06-15T08:45:27.355Z,23.56
2017-06-15T08:47:57.122Z,23.89
2017-06-15T08:50:26.869Z,23.68
2017-06-15T08:52:56.651Z,23.43
2017-06-15T08:55:26.221Z,23.73
2017-06-15T08:57:57.382Z,23.71
2017-06-15T09:00:29.879Z,24.13
2017-06-15T09:02:59.604Z,24.40
2017-06-15T09:05:29.745Z,24.19
2017-06-15T09:07:59.486Z,24.49
2017-06-15T09:10:30.586Z,24.40
2017-06-15T09:13:00.326Z,24.68
2017-06-15T09:15:30.093Z,24.59
2017-06-15T09:18:03.853Z,24.66
2017-06-15T09:20:36.339Z,24.43
2017-06-15T09:23:06.112Z,25.11
2017-06-15T09:25:35.850Z,25.05
2017-06-15T09:28:08.888Z,25.14
2017-06-15T09:30:38.647Z,25.53
2017-06-15T09:33:08.379Z,25.53
2017-06-15T09:35:38.140Z,25.84
2017-06-15T09:38:07.922Z,25.66
2017-06-15T09:40:45.474Z,25.88
2017-06-15T09:43:15.848Z,25.59
2017-06-15T09:45:45.657Z,25.08
2017-06-15T09:48:15.397Z,25.40
2017-06-15T09:50:45.149Z,25.64
2017-06-15T09:53:15.118Z,25.17
2017-06-15T09:55:45.679Z,25.58
2017-06-15T09:58:15.474Z,25.15
2017-06-15T10:00:45.230Z,25.42
2017-06-15T10:03:15.044Z,25.23
2017-06-15T10:05:44.876Z,25.45
2017-06-15T10:08:14.686Z,25.63
2017-06-15T10:10:44.497Z,25.71
2017-06-15T10:13:14.255Z,25.89
2017-06-15T10:15:44.068Z,25.90
2017-06-15T10:18:13.805Z,26.34
2017-06-15T10:20:43.597Z,26.52
2017-06-15T10:23:14.320Z,25.87
2017-06-15T10:25:44.057Z,26.12
2017-06-15T10:28:13.857Z,26.40
2017-06-15T10:30:43.655Z,26.50
2017-06-15T10:33:15.078Z,25.88
2017-06-15T10:35:44.839Z,26.10
2017-06-15T10:38:14.580Z,26.14
2017-06-15T10:40:44.345Z,25.72
2017-06-15T10:43:14.488Z,26.07
2017-06-15T10:45:44.260Z,26.27
2017-06-15T10:48:14.086Z,26.52
2017-06-15T10:50:45.253Z,26.49
2017-06-15T10:53:15.028Z,26.35
2017-06-15T10:55:44.845Z,26.91
2017-06-15T10:58:14.649Z,26.79
2017-06-15T11:00:44.389Z,26.69
2017-06-15T11:03:14.335Z,26.88
2017-06-15T11:05:44.460Z,26.53
2017-06-15T11:08:14.247Z,26.99
2017-06-15T11:10:44.045Z,26.71
2017-06-15T11:13:13.792Z,27.03
2017-06-15T11:15:43.524Z,27.10
2017-06-15T11:18:14.328Z,27.51
2017-06-15T11:20:45.625Z,27.91
2017-06-15T11:23:15.452Z,27.83
2017-06-15T11:25:47.841Z,27.64
2017-06-15T11:28:19.553Z,27.50
2017-06-15T11:30:49.267Z,27.83
2017-06-15T11:33:19.049Z,27.28
2017-06-15T11:35:48.834Z,27.30
2017-06-15T11:38:18.602Z,26.95
2017-06-15T11:40:48.629Z,27.36
2017-06-15T11:43:20.787Z,27.60
2017-06-15T11:45:50.628Z,28.06
2017-06-15T11:48:21.902Z,27.99
2017-06-15T11:50:51.695Z,28.34
2017-06-15T11:53:21.418Z,28.48
2017-06-15T11:55:51.149Z,28.00
2017-06-15T11:58:21.057Z,28.14
2017-06-15T12:00:50.774Z,28.35
2017-06-15T12:03:20.558Z,28.37
2017-06-15T12:05:54.846Z,27.95
2017-06-15T12:08:24.628Z,27.50
2017-06-15T12:10:54.385Z,27.10
2017-06-15T12:13:24.123Z,27.64
2017-06-15T12:15:54.002Z,28.06
2017-06-15T12:18:23.914Z,28.26
2017-06-15T12:20:53.740Z,28.45
2017-06-15T12:23:23.456Z,27.64
2017-06-15T12:25:53.195Z,27.11
2017-06-15T12:28:22.954Z,27.47
2017-06-15T12:31:03.193Z,27.89
2017-06-15T12:33:36.510Z,28.05
2017-06-15T12:36:06.249Z,28.25
2017-06-15T12:38:35.994Z,27.69
2017-06-15T12:41:05.758Z,27.49
2017-06-15T12:43:35.508Z,27.27
2017-06-15T12:46:05.299Z,27.35
2017-06-15T12:48:35.207Z,27.52
2017-06-15T12:51:04.934Z,27.10
2017-06-15T12:53:34.732Z,27.48
2017-06-15T12:56:04.618Z,27.22
2017-06-15T12:58:35.688Z,27.73
2017-06-15T13:01:05.418Z,28.02
2017-06-15T13:03:35.165Z,28.25
2017-06-15T13:06:04.951Z,28.33
2017-06-15T13:08:36.417Z,27.60
2017-06-15T13:11:06.187Z,27.45
2017-06-15T13:13:35.931Z,27.54
2017-06-15T13:16:05.938Z,27.52
2017-06-15T13:18:37.332Z,27.43
2017-06-15T13:21:07.118Z,27.87
2017-06-15T13:23:36.889Z,27.47
2017-06-15T13:26:06.660Z,27.88
2017-06-15T13:28:39.548Z,28.36
2017-06-15T13:31:17.387Z,28.62
2017-06-15T13:33:47.162Z,28.81
2017-06-15T13:36:17.115Z,27.90
2017-06-15T13:38:47.015Z,28.13
2017-06-15T13:41:16.808Z,27.75
2017-06-15T13:43:46.900Z,27.69
2017-06-15T13:46:18.893Z,27.76
2017-06-15T13:48:48.627Z,27.76
2017-06-15T13:51:18.410Z,28.03
2017-06-15T13:53:48.956Z,28.36
2017-06-15T13:56:18.818Z,28.65
2017-06-15T13:58:48.611Z,28.81
2017-06-15T14:01:18.333Z,28.90
2017-06-15T14:03:49.559Z,28.95
2017-06-15T14:06:19.291Z,28.91
2017-06-15T14:08:49.038Z,28.95
2017-06-15T14:11:20.472Z,28.93
2017-06-15T14:13:50.855Z,28.98
2017-06-15T14:16:21.617Z,29.00
2017-06-15T14:18:51.388Z,28.72
2017-06-15T14:21:21.247Z,28.52
2017-06-15T14:23:52.123Z,28.70
2017-06-15T14:26:21.844Z,28.80
2017-06-15T14:28:51.656Z,28.95
2017-06-15T14:31:21.485Z,29.03
2017-06-15T14:33:51.380Z,29.06
2017-06-15T14:36:21.664Z,29.05
2017-06-15T14:38:53.524Z,29.11
2017-06-15T14:41:23.325Z,29.20
2017-06-15T14:43:53.084Z,29.23
2017-06-15T14:46:23.231Z,29.25
2017-06-15T14:48:53.811Z,28.88
2017-06-15T14:51:27.396Z,29.07
2017-06-15T14:53:58.149Z,28.62
2017-06-15T14:56:29.212Z,28.47
2017-06-15T14:58:58.990Z,28.40
2017-06-15T15:01:29.581Z,28.60
2017-06-15T15:03:59.376Z,28.81
2017-06-15T15:06:31.436Z,28.95
2017-06-15T15:09:12.393Z,28.96
2017-06-15T15:11:42.159Z,29.04
2017-06-15T15:14:11.956Z,29.05
2017-06-15T15:16:41.877Z,29.01
2017-06-15T15:19:11.619Z,29.04
2017-06-15T15:21:42.280Z,29.03
2017-06-15T15:24:12.025Z,28.99
2017-06-15T15:26:44.096Z,28.94
2017-06-15T15:29:13.973Z,28.93
2017-06-15T15:31:43.982Z,28.93
2017-06-15T15:34:13.728Z,28.82
2017-06-15T15:36:43.491Z,28.80
2017-06-15T15:39:13.245Z,28.54
2017-06-15T15:41:43.009Z,28.66
2017-06-15T15:44:12.794Z,28.33
2017-06-15T15:46:43.511Z,28.56
2017-06-15T15:49:13.645Z,28.37
2017-06-15T15:51:43.469Z,28.55
2017-06-15T15:54:20.653Z,28.57
2017-06-15T15:56:50.384Z,28.59
2017-06-15T15:59:21.342Z,28.65
2017-06-15T16:01:51.741Z,28.55
2017-06-15T16:04:21.569Z,28.56
2017-06-15T16:06:51.288Z,28.56
2017-06-15T16:09:21.022Z,28.59
2017-06-15T16:11:50.781Z,28.55
2017-06-15T16:14:20.676Z,28.25
2017-06-15T16:16:50.503Z,28.21
2017-06-15T16:19:20.220Z,28.29
2017-06-15T16:21:50.318Z,28.38
2017-06-15T16:24:20.075Z,28.40
2017-06-15T16:26:49.813Z,28.29
2017-06-15T16:29:20.896Z,28.22
2017-06-15T16:31:50.631Z,28.19
2017-06-15T16:34:23.295Z,28.10
2017-06-15T16:36:53.027Z,28.09
2017-06-15T16:39:22.831Z,28.04
2017-06-15T16:41:52.569Z,27.95
2017-06-15T16:44:23.763Z,27.95
2017-06-15T16:46:53.520Z,27.95
2017-06-15T16:49:24.663Z,27.90
2017-06-15T16:51:56.060Z,27.81
2017-06-15T16:54:28.554Z,27.86
2017-06-15T16:56:59.481Z,27.70
2017-06-15T16:59:29.265Z,27.65
2017-06-15T17:01:59.026Z,27.63
2017-06-15T17:04:28.774Z,27.63
2017-06-15T17:06:58.770Z,27.60
2017-06-15T17:09:28.593Z,27.56
2017-06-15T17:11:58.463Z,27.53
2017-06-15T17:14:29.567Z,27.48
2017-06-15T17:17:05.244Z,27.39
2017-06-15T17:19:37.033Z,27.33
2017-06-15T17:22:07.197Z,27.35
2017-06-15T17:24:37.027Z,27.37
2017-06-15T17:27:06.829Z,27.12
2017-06-15T17:29:36.587Z,26.92
2017-06-15T17:32:06.336Z,26.94
2017-06-15T17:34:36.221Z,26.83
2017-06-15T17:37:07.383Z,26.72
2017-06-15T17:39:37.416Z,26.71
2017-06-15T17:42:08.627Z,26.54
2017-06-15T17:44:38.423Z,26.55
2017-06-15T17:47:12.065Z,26.53
2017-06-15T17:49:41.852Z,26.48
2017-06-15T17:52:11.621Z,26.54
2017-06-15T17:54:41.379Z,26.53
2017-06-15T17:57:11.201Z,26.57
2017-06-15T17:59:45.367Z,26.52
2017-06-15T18:02:15.162Z,26.49
2017-06-15T18:04:45.610Z,26.47
2017-06-15T18:07:15.356Z,26.49
2017-06-15T18:09:46.064Z,26.50
2017-06-15T18:12:15.805Z,26.49
2017-06-15T18:14:48.500Z,26.46
2017-06-15T18:17:19.912Z,26.36
2017-06-15T18:19:49.735Z,26.34
2017-06-15T18:22:19.874Z,26.29
2017-06-15T18:24:49.647Z,26.23
2017-06-15T18:27:19.426Z,26.16
2017-06-15T18:29:50.297Z,25.74
2017-06-15T18:32:21.531Z,25.70
2017-06-15T18:34:51.353Z,25.68
2017-06-15T18:37:21.154Z,25.71
2017-06-15T18:39:58.675Z,25.60
2017-06-15T18:42:28.454Z,25.56
2017-06-15T18:44:59.020Z,25.50
2017-06-15T18:47:28.823Z,25.32
2017-06-15T18:49:58.576Z,25.46
2017-06-15T18:52:28.332Z,25.49
2017-06-15T18:54:58.108Z,25.37
2017-06-15T18:57:27.993Z,25.28
2017-06-15T18:59:58.624Z,25.26
2017-06-15T19:02:28.385Z,25.27
2017-06-15T19:04:58.131Z,25.30
2017-06-15T19:07:29.276Z,25.18
2017-06-15T19:09:59.013Z,25.10
2017-06-15T19:12:28.831Z,25.04
2017-06-15T19:14:59.013Z,24.72
2017-06-15T19:17:28.804Z,24.46
2017-06-15T19:19:58.541Z,24.41
2017-06-15T19:22:29.309Z,24.21
2017-06-15T19:24:59.061Z,24.06
2017-06-15T19:27:28.817Z,23.87
2017-06-15T19:30:01.039Z,23.85
2017-06-15T19:32:30.783Z,23.72
2017-06-15T19:35:04.633Z,23.75
2017-06-15T19:37:34.368Z,23.69
2017-06-15T19:40:04.192Z,23.57
2017-06-15T19:42:36.653Z,23.67
2017-06-15T19:45:06.500Z,23.69
2017-06-15T19:47:38.296Z,23.68
2017-06-15T19:50:08.083Z,23.46
2017-06-15T19:52:37.823Z,23.41
2017-06-15T19:55:07.542Z,23.27
2017-06-15T19:57:37.340Z,23.36
2017-06-15T20:00:07.073Z,23.36
2017-06-15T20:02:37.643Z,23.33
2017-06-15T20:05:07.411Z,23.37
2017-06-15T20:07:39.193Z,23.44
2017-06-15T20:10:09.036Z,23.38
2017-06-15T20:12:38.837Z,23.29
2017-06-15T20:15:08.593Z,23.12
2017-06-15T20:17:38.337Z,23.20
2017-06-15T20:20:08.120Z,23.27
2017-06-15T20:22:37.717Z,23.21
2017-06-15T20:25:07.268Z,23.06
2017-06-15T20:27:36.845Z,22.96
2017-06-15T20:30:06.084Z,23.04
2017-06-15T20:32:37.283Z,23.13
2017-06-15T20:35:08.488Z,23.38
2017-06-15T20:37:39.614Z,23.54
2017-06-15T20:40:09.352Z,23.64
2017-06-15T20:42:40.072Z,23.48
2017-06-15T20:45:09.805Z,23.25
2017-06-15T20:47:39.544Z,23.01
2017-06-15T20:50:10.100Z,22.72
2017-06-15T20:52:39.829Z,22.56
2017-06-15T20:55:09.607Z,22.39
2017-06-15T20:57:39.342Z,22.11
2017-06-15T21:00:09.081Z,22.09
2017-06-15T21:02:39.741Z,21.99
2017-06-15T21:05:10.957Z,21.56
2017-06-15T21:07:44.741Z,21.16
2017-06-15T21:10:15.020Z,20.90
2017-06-15T21:12:45.937Z,20.84
2017-06-15T21:15:15.678Z,20.73
2017-06-15T21:17:45.445Z,20.65
2017-06-15T21:20:16.045Z,20.50
2017-06-15T21:22:46.547Z,20.27
2017-06-15T21:25:18.217Z,20.04
2017-06-15T21:27:49.382Z,19.46
2017-06-15T21:30:19.181Z,19.18
2017-06-15T21:32:48.919Z,19.59
2017-06-15T21:35:18.279Z,20.05
2017-06-15T21:37:48.033Z,20.15
2017-06-15T21:40:18.659Z,20.17
2017-06-15T21:42:51.441Z,19.95
2017-06-15T21:45:22.564Z,19.92
2017-06-15T21:47:53.710Z,19.97
2017-06-15T21:50:24.790Z,20.08
2017-06-15T21:52:57.249Z,20.11
2017-06-15T21:55:28.898Z,20.27
2017-06-15T21:58:00.656Z,20.33
2017-06-15T22:00:32.714Z,20.31
2017-06-15T22:03:05.331Z,20.06
2017-06-15T22:05:38.019Z,20.17
2017-06-15T22:08:09.477Z,20.27
2017-06-15T22:10:41.219Z,20.19
2017-06-15T22:13:12.852Z,20.28
2017-06-15T22:15:44.103Z,19.83
2017-06-15T22:18:14.783Z,19.79
2017-06-15T22:20:45.915Z,19.77
2017-06-15T22:23:17.316Z,19.84
2017-06-15T22:25:48.411Z,19.87
2017-06-15T22:28:20.596Z,19.98
2017-06-15T22:30:51.701Z,19.97
2017-06-15T22:33:24.458Z,20.22
2017-06-15T22:35:55.726Z,20.19
2017-06-15T22:38:27.063Z,20.08
2017-06-15T22:40:58.211Z,20.09
2017-06-15T22:43:30.920Z,20.00
2017-06-15T22:46:02.288Z,19.99
2017-06-15T22:48:33.533Z,19.89
2017-06-15T22:51:06.106Z,19.69
2017-06-15T22:53:39.555Z,19.62
2017-06-15T22:56:11.016Z,19.58
2017-06-15T22:58:41.949Z,19.78
2017-06-15T23:01:17.126Z,19.95
2017-06-15T23:03:49.624Z,19.91
2017-06-15T23:06:22.515Z,19.93
2017-06-15T23:08:53.631Z,19.77
2017-06-15T23:11:28.531Z,19.69
2017-06-15T23:13:58.853Z,19.86
2017-06-15T23:16:28.607Z,19.87
2017-06-15T23:18:58.460Z,19.90
2017-06-15T23:21:29.352Z,19.71
2017-06-15T23:23:59.126Z,19.80
2017-06-15T23:26:28.921Z,19.81
2017-06-15T23:29:00.515Z,19.86
2017-06-15T23:31:30.329Z,19.95
2017-06-15T23:34:00.121Z,20.02
2017-06-15T23:36:29.923Z,20.07
2017-06-15T23:39:00.970Z,19.96
2017-06-15T23:41:30.715Z,19.77
2017-06-15T23:44:01.557Z,19.87
2017-06-15T23:46:31.357Z,19.91
2017-06-15T23:49:01.158Z,19.97
2017-06-15T23:51:32.527Z,20.03
2017-06-15T23:54:03.381Z,19.96
2017-06-15T23:56:33.522Z,19.96
2017-06-15T23:59:03.268Z,20.00
